createdAt,value
2019-02-26T00:00:49.615Z,3.23
2019-02-26T00:01:50.470Z,3.29
2019-02-26T00:03:52.122Z,3.52
2019-02-26T00:04:54.059Z,3.61
2019-02-26T00:06:57.940Z,3.65
2019-02-26T00:07:57.870Z,3.86
2019-02-26T00:10:02.589Z,3.88
2019-02-26T00:11:01.725Z,3.90
2019-02-26T00:13:05.345Z,3.84
2019-02-26T00:14:05.581Z,3.80
2019-02-26T00:16:10.581Z,3.70
2019-02-26T00:17:11.201Z,3.60
2019-02-26T00:19:14.472Z,3.54
2019-02-26T00:20:15.816Z,3.43
2019-02-26T00:22:18.524Z,3.40
2019-02-26T00:23:19.821Z,3.31
2019-02-26T00:25:22.934Z,3.52
2019-02-26T00:26:23.172Z,3.60
2019-02-26T00:28:17.651Z,3.79
2019-02-26T00:29:16.515Z,3.70
2019-02-26T00:31:21.514Z,3.62
2019-02-26T00:32:20.904Z,3.62
2019-02-26T00:34:25.100Z,3.76
2019-02-26T00:35:27.468Z,3.76
2019-02-26T00:37:30.682Z,3.47
2019-02-26T00:38:29.700Z,3.33
2019-02-26T00:40:34.930Z,2.99
2019-02-26T00:41:35.747Z,3.02
2019-02-26T00:43:38.276Z,3.13
2019-02-26T00:44:38.517Z,3.08
2019-02-26T00:46:42.663Z,3.26
2019-02-26T00:47:43.583Z,3.42
2019-02-26T00:49:48.547Z,3.33
2019-02-26T00:50:47.307Z,3.33
2019-02-26T00:52:52.351Z,3.42
2019-02-26T00:53:54.712Z,3.45
2019-02-26T00:55:58.424Z,3.43
2019-02-26T00:56:59.080Z,3.43
2019-02-26T00:59:00.266Z,3.35
2019-02-26T01:00:02.791Z,3.35
2019-02-26T01:02:04.651Z,3.21
2019-02-26T01:03:05.993Z,3.08
2019-02-26T01:05:10.794Z,3.03
2019-02-26T01:06:09.298Z,2.92
2019-02-26T01:08:02.373Z,2.53
2019-02-26T01:09:04.123Z,2.48
2019-02-26T01:11:08.266Z,2.42
2019-02-26T01:12:08.933Z,2.54
2019-02-26T01:14:11.189Z,2.53
2019-02-26T01:15:12.151Z,2.74
2019-02-26T01:17:16.961Z,3.02
2019-02-26T01:18:15.817Z,3.20
2019-02-26T01:20:22.667Z,3.23
2019-02-26T01:21:22.175Z,3.35
2019-02-26T01:23:26.608Z,3.28
2019-02-26T01:24:26.018Z,3.13
2019-02-26T01:26:28.767Z,3.17
2019-02-26T01:27:29.003Z,3.14
2019-02-26T01:29:33.172Z,3.17
2019-02-26T01:30:35.718Z,3.05
2019-02-26T01:32:37.560Z,2.95
2019-02-26T01:33:37.799Z,2.87
2019-02-26T01:35:41.970Z,2.92
2019-02-26T01:36:42.635Z,2.96
2019-02-26T01:38:48.677Z,3.14
2019-02-26T01:39:47.288Z,3.18
2019-02-26T01:41:53.411Z,3.36
2019-02-26T01:42:52.862Z,3.32
2019-02-26T01:44:55.153Z,3.36
2019-02-26T01:45:55.497Z,3.17
2019-02-26T01:47:50.443Z,2.89
2019-02-26T01:48:48.703Z,2.75
2019-02-26T01:50:54.461Z,2.54
2019-02-26T01:51:53.911Z,2.53
2019-02-26T01:53:57.256Z,2.71
2019-02-26T01:54:58.525Z,2.85
2019-02-26T01:57:01.672Z,3.00
2019-02-26T01:58:01.908Z,3.05
2019-02-26T02:00:06.931Z,3.02
2019-02-26T02:01:06.314Z,3.08
2019-02-26T02:03:10.489Z,3.13
2019-02-26T02:04:12.768Z,3.24
2019-02-26T02:06:15.919Z,3.40
2019-02-26T02:07:15.127Z,3.35
2019-02-26T02:09:20.518Z,3.39
2019-02-26T02:10:19.512Z,3.36
2019-02-26T02:12:27.413Z,3.31
2019-02-26T02:13:28.313Z,3.32
2019-02-26T02:15:28.087Z,3.26
2019-02-26T02:16:29.596Z,3.26
2019-02-26T02:18:23.067Z,3.21
2019-02-26T02:19:23.390Z,3.11
2019-02-26T02:21:26.544Z,3.00
2019-02-26T02:22:26.035Z,2.97
2019-02-26T02:24:30.187Z,3.15
2019-02-26T02:25:33.199Z,3.17
2019-02-26T02:27:34.594Z,3.21
2019-02-26T02:28:35.633Z,3.28
2019-02-26T02:30:39.201Z,3.10
2019-02-26T02:31:40.221Z,3.00
2019-02-26T02:33:43.389Z,3.02
2019-02-26T02:34:43.623Z,2.93
2019-02-26T02:36:47.796Z,2.95
2019-02-26T02:37:48.047Z,3.03
2019-02-26T02:39:52.177Z,3.15
2019-02-26T02:40:54.747Z,3.36
2019-02-26T02:42:56.591Z,3.62
2019-02-26T02:43:56.832Z,3.68
2019-02-26T02:46:01.362Z,3.61
2019-02-26T02:47:01.884Z,3.65
2019-02-26T02:49:07.504Z,3.55
2019-02-26T02:50:08.705Z,3.40
2019-02-26T02:52:11.855Z,3.21
2019-02-26T02:53:10.024Z,3.17
2019-02-26T02:55:18.625Z,2.87
2019-02-26T02:56:15.328Z,2.60
2019-02-26T02:58:07.515Z,2.42
2019-02-26T02:59:08.920Z,2.35
2019-02-26T03:01:14.026Z,2.30
2019-02-26T03:02:14.193Z,2.43
2019-02-26T03:04:19.515Z,2.41
2019-02-26T03:05:16.599Z,2.45
2019-02-26T03:07:21.557Z,2.24
2019-02-26T03:08:22.473Z,2.18
2019-02-26T03:10:28.456Z,2.27
2019-02-26T03:11:25.335Z,2.45
2019-02-26T03:13:29.502Z,2.42
2019-02-26T03:14:32.911Z,2.39
2019-02-26T03:16:33.898Z,2.41
2019-02-26T03:17:34.122Z,2.48
2019-02-26T03:19:40.778Z,2.75
2019-02-26T03:20:40.273Z,2.87
2019-02-26T03:22:45.681Z,3.05
2019-02-26T03:23:43.513Z,3.29
2019-02-26T03:25:47.873Z,3.76
2019-02-26T03:26:47.312Z,3.78
2019-02-26T03:28:53.220Z,3.79
2019-02-26T03:29:52.544Z,3.70
2019-02-26T03:31:55.868Z,3.65
2019-02-26T03:33:00.254Z,3.60
2019-02-26T03:35:04.399Z,3.40
2019-02-26T03:36:00.515Z,3.42
2019-02-26T03:37:57.222Z,3.29
2019-02-26T03:38:56.541Z,3.08
2019-02-26T03:40:59.103Z,2.93
2019-02-26T03:41:58.236Z,2.74
2019-02-26T03:44:03.310Z,2.57
2019-02-26T03:45:02.953Z,2.48
2019-02-26T03:47:06.785Z,2.30
2019-02-26T03:48:07.022Z,2.25
2019-02-26T03:50:11.191Z,2.34
2019-02-26T03:51:11.431Z,2.30
2019-02-26T03:53:15.599Z,2.36
2019-02-26T03:54:15.843Z,2.41
2019-02-26T03:56:20.568Z,2.41
2019-02-26T03:57:22.714Z,2.45
2019-02-26T03:59:24.398Z,2.53
2019-02-26T04:00:24.633Z,2.67
2019-02-26T04:02:28.782Z,2.82
2019-02-26T04:03:29.678Z,2.74
2019-02-26T04:05:33.195Z,2.75
2019-02-26T04:06:36.008Z,2.84
2019-02-26T04:08:27.940Z,2.66
2019-02-26T04:09:26.774Z,2.59
2019-02-26T04:11:30.927Z,2.42
2019-02-26T04:12:36.074Z,2.43
2019-02-26T04:14:35.331Z,2.30
2019-02-26T04:15:36.438Z,2.25
2019-02-26T04:17:42.189Z,2.18
2019-02-26T04:18:39.957Z,2.18
2019-02-26T04:20:44.459Z,2.24
2019-02-26T04:21:44.381Z,2.18
2019-02-26T04:23:48.547Z,2.06
2019-02-26T04:24:50.040Z,2.20
2019-02-26T04:26:52.942Z,1.88
2019-02-26T04:27:53.178Z,1.87
2019-02-26T04:29:57.345Z,1.95
2019-02-26T04:30:57.590Z,2.05
2019-02-26T04:33:03.976Z,2.05
2019-02-26T04:34:05.082Z,2.03
2019-02-26T04:36:06.135Z,1.87
2019-02-26T04:37:07.172Z,2.00
2019-02-26T04:39:11.615Z,2.05
2019-02-26T04:40:12.082Z,2.17
2019-02-26T04:42:17.611Z,2.25
2019-02-26T04:43:15.167Z,2.16
2019-02-26T04:45:19.332Z,2.16
2019-02-26T04:46:19.566Z,2.20
2019-02-26T04:48:14.754Z,2.14
2019-02-26T04:49:12.888Z,2.03
2019-02-26T04:51:17.111Z,1.98
2019-02-26T04:52:17.525Z,1.95
2019-02-26T04:54:24.283Z,1.98
2019-02-26T04:55:21.677Z,2.02
2019-02-26T04:57:25.845Z,1.81
2019-02-26T04:58:26.086Z,1.73
2019-02-26T05:00:32.713Z,1.72
2019-02-26T05:01:30.497Z,1.76
2019-02-26T05:03:34.632Z,1.65
2019-02-26T05:04:36.830Z,1.63
2019-02-26T05:06:39.040Z,1.34
2019-02-26T05:07:41.429Z,1.41
2019-02-26T05:09:43.420Z,1.47
2019-02-26T05:10:43.666Z,1.42
2019-02-26T05:12:47.826Z,1.47
2019-02-26T05:13:48.063Z,1.48
2019-02-26T05:15:52.233Z,1.58
2019-02-26T05:16:52.471Z,1.66
2019-02-26T05:18:58.511Z,1.70
2019-02-26T05:19:56.871Z,1.63
2019-02-26T05:22:01.626Z,1.47
2019-02-26T05:23:03.118Z,1.47
2019-02-26T05:25:07.514Z,1.33
2019-02-26T05:26:08.365Z,1.16
2019-02-26T05:27:58.735Z,1.15
2019-02-26T05:28:58.975Z,1.06
2019-02-26T05:31:04.465Z,0.93
2019-02-26T05:32:04.098Z,0.91
2019-02-26T05:34:07.520Z,0.84
2019-02-26T05:35:07.765Z,0.79
2019-02-26T05:37:13.784Z,0.68
2019-02-26T05:38:12.204Z,0.61
2019-02-26T05:40:18.954Z,0.69
2019-02-26T05:41:16.551Z,0.49
2019-02-26T05:43:22.967Z,0.33
2019-02-26T05:44:20.949Z,0.42
2019-02-26T05:46:27.466Z,0.62
2019-02-26T05:47:26.675Z,0.62
2019-02-26T05:49:31.555Z,0.60
2019-02-26T05:50:32.085Z,0.55
2019-02-26T05:52:35.889Z,0.51
2019-02-26T05:53:34.133Z,0.62
2019-02-26T05:55:38.279Z,0.75
2019-02-26T05:56:41.280Z,0.75
2019-02-26T05:58:44.733Z,0.93
2019-02-26T05:59:42.918Z,0.96
2019-02-26T06:01:49.338Z,0.91
2019-02-26T06:02:50.435Z,0.79
2019-02-26T06:04:51.466Z,0.28
2019-02-26T06:05:52.809Z,0.11
2019-02-26T06:07:44.796Z,-0.07
2019-02-26T06:08:45.036Z,0.03
2019-02-26T06:10:49.177Z,0.20
2019-02-26T06:11:50.137Z,0.57
2019-02-26T06:13:55.548Z,0.90
2019-02-26T06:14:54.935Z,1.14
2019-02-26T06:16:57.980Z,1.14
2019-02-26T06:17:58.216Z,1.16
2019-02-26T06:20:04.828Z,1.09
2019-02-26T06:21:02.595Z,1.06
2019-02-26T06:23:06.779Z,1.09
2019-02-26T06:24:07.017Z,1.12
2019-02-26T06:26:14.862Z,1.02
2019-02-26T06:27:13.807Z,0.91
2019-02-26T06:29:15.563Z,0.75
2019-02-26T06:30:15.797Z,0.83
2019-02-26T06:32:19.959Z,0.78
2019-02-26T06:33:20.196Z,0.83
2019-02-26T06:35:24.344Z,0.72
2019-02-26T06:36:25.761Z,0.76
2019-02-26T06:38:17.675Z,0.86
2019-02-26T06:39:20.260Z,0.94
2019-02-26T06:41:22.069Z,1.12
2019-02-26T06:42:22.301Z,1.30
2019-02-26T06:44:26.467Z,1.50
2019-02-26T06:45:26.704Z,1.62
2019-02-26T06:47:32.871Z,1.77
2019-02-26T06:48:32.356Z,2.00
2019-02-26T06:50:36.783Z,2.31
2019-02-26T06:51:35.497Z,2.78
2019-02-26T06:53:39.663Z,2.82
2019-02-26T06:54:39.902Z,2.82
2019-02-26T06:56:46.026Z,3.03
2019-02-26T06:57:46.956Z,3.00
2019-02-26T06:59:48.454Z,3.43
2019-02-26T07:00:52.572Z,3.80
2019-02-26T07:02:52.856Z,4.94
2019-02-26T07:03:53.908Z,5.75
2019-02-26T07:05:57.239Z,6.69
2019-02-26T07:06:59.426Z,7.31
2019-02-26T07:09:01.645Z,8.02
2019-02-26T07:10:01.891Z,8.52
2019-02-26T07:12:06.020Z,8.80
2019-02-26T07:13:08.872Z,8.62
2019-02-26T07:15:12.161Z,8.92
2019-02-26T07:16:10.659Z,9.40
2019-02-26T07:18:06.755Z,9.68
2019-02-26T07:19:06.401Z,9.65
2019-02-26T07:21:08.134Z,8.71
2019-02-26T07:22:11.012Z,8.20
2019-02-26T07:24:12.541Z,7.98
2019-02-26T07:25:15.341Z,7.68
2019-02-26T07:27:16.922Z,7.35
2019-02-26T07:28:17.569Z,7.25
2019-02-26T07:30:21.330Z,8.25
2019-02-26T07:31:21.566Z,9.02
2019-02-26T07:33:27.392Z,10.20
2019-02-26T07:34:27.379Z,10.51
2019-02-26T07:36:30.127Z,11.52
2019-02-26T07:37:31.471Z,11.96
2019-02-26T07:39:34.539Z,13.07
2019-02-26T07:40:35.935Z,13.33
2019-02-26T07:42:39.592Z,13.14
2019-02-26T07:43:41.223Z,13.49
2019-02-26T07:45:43.340Z,14.22
2019-02-26T07:46:44.875Z,14.36
2019-02-26T07:48:48.910Z,14.28
2019-02-26T07:49:48.004Z,14.36
2019-02-26T07:51:52.157Z,14.80
2019-02-26T07:52:54.439Z,15.09
2019-02-26T07:54:56.590Z,16.07
2019-02-26T07:55:58.675Z,16.30
2019-02-26T07:57:51.200Z,16.53
2019-02-26T07:58:50.174Z,16.49
2019-02-26T08:00:54.381Z,16.33
2019-02-26T08:01:54.624Z,16.34
2019-02-26T08:03:58.825Z,16.75
2019-02-26T08:04:59.071Z,16.82
2019-02-26T08:07:03.760Z,17.14
2019-02-26T08:08:03.479Z,17.36
2019-02-26T08:10:09.946Z,18.03
2019-02-26T08:11:07.926Z,18.23
2019-02-26T08:13:12.103Z,18.21
2019-02-26T08:14:14.368Z,18.25
2019-02-26T08:16:18.256Z,18.33
2019-02-26T08:17:16.807Z,18.51
2019-02-26T08:19:21.004Z,18.63
2019-02-26T08:20:21.258Z,18.78
2019-02-26T08:22:27.050Z,18.85
2019-02-26T08:23:26.407Z,18.87
2019-02-26T08:25:29.885Z,18.84
2019-02-26T08:26:30.129Z,18.87
2019-02-26T08:28:24.875Z,18.76
2019-02-26T08:29:24.525Z,18.95
2019-02-26T08:31:27.977Z,19.26
2019-02-26T08:32:28.745Z,19.71
2019-02-26T08:34:32.136Z,20.13
2019-02-26T08:35:32.387Z,19.92
2019-02-26T08:37:36.562Z,20.08
2019-02-26T08:38:36.815Z,20.33
2019-02-26T08:40:41.029Z,20.69
2019-02-26T08:41:41.685Z,20.76
2019-02-26T08:43:47.084Z,21.42
2019-02-26T08:44:46.835Z,21.47
2019-02-26T08:46:49.948Z,21.59
2019-02-26T08:47:50.194Z,21.74
2019-02-26T08:49:54.383Z,21.88
2019-02-26T08:50:55.854Z,21.72
2019-02-26T08:52:58.815Z,21.98
2019-02-26T08:53:59.051Z,22.21
2019-02-26T08:56:04.089Z,22.06
2019-02-26T08:57:03.499Z,22.17
2019-02-26T08:59:07.667Z,22.02
2019-02-26T09:00:07.926Z,22.28
2019-02-26T09:02:12.114Z,22.22
2019-02-26T09:03:13.830Z,22.27
2019-02-26T09:05:16.565Z,22.14
2019-02-26T09:06:16.818Z,22.00
2019-02-26T09:08:12.849Z,21.71
2019-02-26T09:09:10.171Z,22.00
2019-02-26T09:11:14.369Z,22.39
2019-02-26T09:12:15.210Z,22.58
2019-02-26T09:14:18.800Z,23.35
2019-02-26T09:15:19.052Z,23.70
2019-02-26T09:17:26.675Z,23.88
2019-02-26T09:18:27.425Z,24.03
2019-02-26T09:20:27.817Z,24.25
2019-02-26T09:21:27.970Z,23.73
2019-02-26T09:23:32.882Z,23.20
2019-02-26T09:24:32.425Z,22.79
2019-02-26T09:26:36.636Z,23.43
2019-02-26T09:27:42.506Z,23.70
2019-02-26T09:29:43.932Z,24.83
2019-02-26T09:30:41.315Z,24.93
2019-02-26T09:32:45.520Z,24.50
2019-02-26T09:33:45.773Z,24.96
2019-02-26T09:35:52.042Z,25.30
2019-02-26T09:36:52.720Z,25.33
2019-02-26T09:38:54.425Z,26.23
2019-02-26T09:39:56.792Z,26.50
2019-02-26T09:41:59.399Z,27.18
2019-02-26T09:43:00.124Z,27.28
2019-02-26T09:45:03.317Z,27.22
2019-02-26T09:46:04.006Z,27.59
2019-02-26T09:47:57.954Z,27.47
2019-02-26T09:48:57.923Z,27.41
2019-02-26T09:51:01.179Z,27.81
2019-02-26T09:52:02.124Z,27.51
2019-02-26T09:54:05.624Z,27.43
2019-02-26T09:55:05.879Z,27.24
2019-02-26T09:57:10.143Z,28.29
2019-02-26T09:58:10.343Z,28.24
2019-02-26T10:00:15.136Z,29.28
2019-02-26T10:01:15.811Z,29.15
2019-02-26T10:03:18.995Z,29.12
2019-02-26T10:04:20.128Z,28.54
2019-02-26T10:06:23.567Z,29.55
2019-02-26T10:07:23.724Z,29.43
2019-02-26T10:09:27.911Z,29.55
2019-02-26T10:10:30.848Z,29.74
2019-02-26T10:12:34.616Z,29.58
2019-02-26T10:13:32.638Z,29.28
2019-02-26T10:15:39.314Z,28.86
2019-02-26T10:16:37.079Z,29.02
2019-02-26T10:18:31.015Z,28.90
2019-02-26T10:19:31.537Z,28.96
2019-02-26T10:21:34.933Z,29.42
2019-02-26T10:22:36.193Z,28.98
2019-02-26T10:24:40.373Z,29.18
2019-02-26T10:25:39.385Z,29.02
2019-02-26T10:27:45.367Z,29.11
2019-02-26T10:28:46.727Z,27.93
2019-02-26T10:30:48.049Z,27.96
2019-02-26T10:31:48.305Z,28.49
2019-02-26T10:33:52.519Z,29.70
2019-02-26T10:34:52.776Z,29.89
2019-02-26T10:36:56.986Z,29.97
2019-02-26T10:37:59.629Z,30.57
2019-02-26T10:40:01.438Z,31.04
2019-02-26T10:41:01.900Z,31.04
2019-02-26T10:43:05.899Z,30.67
2019-02-26T10:44:06.157Z,30.45
2019-02-26T10:46:10.349Z,29.04
2019-02-26T10:47:10.722Z,28.81
2019-02-26T10:49:14.822Z,28.89
2019-02-26T10:50:16.340Z,28.67
2019-02-26T10:52:19.929Z,28.24
2019-02-26T10:53:22.449Z,28.39
2019-02-26T10:55:30.794Z,27.63
2019-02-26T10:56:27.958Z,27.19
2019-02-26T10:58:17.145Z,28.52
2019-02-26T10:59:19.501Z,29.05
2019-02-26T11:01:23.599Z,29.71
2019-02-26T11:02:23.087Z,29.24
2019-02-26T11:04:34.468Z,29.63
2019-02-26T11:05:26.774Z,29.36
2019-02-26T11:07:31.791Z,30.58
2019-02-26T11:08:32.813Z,31.17
2019-02-26T11:10:39.331Z,30.31
2019-02-26T11:11:37.396Z,30.67
2019-02-26T11:13:40.696Z,31.29
2019-02-26T11:14:41.849Z,31.54
2019-02-26T11:16:43.903Z,29.49
2019-02-26T11:17:45.690Z,29.90
2019-02-26T11:19:48.373Z,31.38
2019-02-26T11:20:50.331Z,32.55
2019-02-26T11:22:52.850Z,33.16
2019-02-26T11:23:53.106Z,32.37
2019-02-26T11:25:57.298Z,31.56
2019-02-26T11:26:57.555Z,31.31
2019-02-26T11:29:01.772Z,30.26
2019-02-26T11:30:04.911Z,30.13
2019-02-26T11:32:07.814Z,30.17
2019-02-26T11:33:08.626Z,30.84
2019-02-26T11:35:10.700Z,30.57
2019-02-26T11:36:13.060Z,30.05
2019-02-26T11:38:04.109Z,27.92
2019-02-26T11:39:06.483Z,26.69
2019-02-26T11:41:08.554Z,28.59
2019-02-26T11:42:10.454Z,28.17
2019-02-26T11:44:15.412Z,28.70
2019-02-26T11:45:14.343Z,28.49
2019-02-26T11:47:18.347Z,29.16
2019-02-26T11:48:17.889Z,29.65
2019-02-26T11:50:26.943Z,30.11
2019-02-26T11:51:22.209Z,29.85
2019-02-26T11:53:29.632Z,28.27
2019-02-26T11:54:26.682Z,28.95
2019-02-26T11:56:30.877Z,29.83
2019-02-26T11:57:34.915Z,30.23
2019-02-26T11:59:36.308Z,31.13
2019-02-26T12:00:37.336Z,30.60
2019-02-26T12:02:41.639Z,29.92
2019-02-26T12:03:41.659Z,29.82
2019-02-26T12:05:44.303Z,28.37
2019-02-26T12:06:44.523Z,27.46
2019-02-26T12:08:50.036Z,28.70
2019-02-26T12:09:48.992Z,28.98
2019-02-26T12:11:53.187Z,29.42
2019-02-26T12:12:54.117Z,28.76
2019-02-26T12:14:57.671Z,30.10
2019-02-26T12:15:57.931Z,29.95
2019-02-26T12:17:51.797Z,30.32
2019-02-26T12:18:51.308Z,29.98
2019-02-26T12:20:55.527Z,29.53
2019-02-26T12:21:57.517Z,30.08
2019-02-26T12:24:01.552Z,30.00
2019-02-26T12:25:02.634Z,29.85
2019-02-26T12:27:04.449Z,28.89
2019-02-26T12:28:05.394Z,29.60
2019-02-26T12:30:09.992Z,29.30
2019-02-26T12:31:10.953Z,30.01
2019-02-26T12:33:14.798Z,31.28
2019-02-26T12:34:14.597Z,31.31
2019-02-26T12:36:17.834Z,30.54
2019-02-26T12:37:18.091Z,30.27
2019-02-26T12:39:25.155Z,29.97
2019-02-26T12:40:25.348Z,30.24
2019-02-26T12:42:26.758Z,30.57
2019-02-26T12:43:27.012Z,30.65
2019-02-26T12:45:33.845Z,30.02
2019-02-26T12:46:33.740Z,29.95
2019-02-26T12:48:24.604Z,29.42
2019-02-26T12:49:24.860Z,29.65
2019-02-26T12:51:31.941Z,28.51
2019-02-26T12:52:30.372Z,29.16
2019-02-26T12:54:37.083Z,29.80
2019-02-26T12:55:35.860Z,30.23
2019-02-26T12:57:37.999Z,28.55
2019-02-26T12:58:40.901Z,28.33
2019-02-26T13:00:42.467Z,29.06
2019-02-26T13:01:46.336Z,29.87
2019-02-26T13:03:51.122Z,29.53
2019-02-26T13:04:50.098Z,30.43
2019-02-26T13:06:52.023Z,30.88
2019-02-26T13:07:51.633Z,31.28
2019-02-26T13:10:00.479Z,31.61
2019-02-26T13:10:58.372Z,31.95
2019-02-26T13:13:03.913Z,30.92
2019-02-26T13:14:00.556Z,31.07
2019-02-26T13:16:04.766Z,30.67
2019-02-26T13:17:05.026Z,31.13
2019-02-26T13:19:09.216Z,30.98
2019-02-26T13:20:11.057Z,31.43
2019-02-26T13:22:17.467Z,31.36
2019-02-26T13:23:20.339Z,30.82
2019-02-26T13:25:21.325Z,30.49
2019-02-26T13:26:21.833Z,30.35
2019-02-26T13:28:11.536Z,30.11
2019-02-26T13:29:11.789Z,30.08
2019-02-26T13:31:19.057Z,29.94
2019-02-26T13:32:17.533Z,30.23
2019-02-26T13:34:20.449Z,28.59
2019-02-26T13:35:20.708Z,29.19
2019-02-26T13:37:26.614Z,30.83
2019-02-26T13:38:33.950Z,30.60
2019-02-26T13:40:29.370Z,29.51
2019-02-26T13:41:30.490Z,28.93
2019-02-26T13:43:33.831Z,28.06
2019-02-26T13:44:34.089Z,27.97
2019-02-26T13:46:38.299Z,28.93
2019-02-26T13:47:38.556Z,28.95
2019-02-26T13:49:42.741Z,28.83
2019-02-26T13:50:42.999Z,28.02
2019-02-26T13:52:47.210Z,28.27
2019-02-26T13:53:47.465Z,27.74
2019-02-26T13:55:51.675Z,27.62
2019-02-26T13:56:51.928Z,27.44
2019-02-26T13:58:56.116Z,27.72
2019-02-26T13:59:56.371Z,27.67
2019-02-26T14:02:00.577Z,28.07
2019-02-26T14:03:00.832Z,27.75
2019-02-26T14:05:05.015Z,28.29
2019-02-26T14:06:05.269Z,28.62
2019-02-26T14:07:58.407Z,29.04
2019-02-26T14:08:58.661Z,29.43
2019-02-26T14:11:02.867Z,29.51
2019-02-26T14:12:03.124Z,29.23
2019-02-26T14:14:07.314Z,28.54
2019-02-26T14:15:07.619Z,28.76
2019-02-26T14:17:11.827Z,28.68
2019-02-26T14:18:12.084Z,28.51
2019-02-26T14:20:16.275Z,28.46
2019-02-26T14:21:16.527Z,27.78
2019-02-26T14:23:20.801Z,27.88
2019-02-26T14:24:21.054Z,27.70
2019-02-26T14:26:25.265Z,27.27
2019-02-26T14:27:25.559Z,27.43
2019-02-26T14:29:29.844Z,27.03
2019-02-26T14:30:30.062Z,26.63
2019-02-26T14:32:34.336Z,27.10
2019-02-26T14:33:34.589Z,27.47
2019-02-26T14:35:38.833Z,27.66
2019-02-26T14:36:39.065Z,27.43
2019-02-26T14:38:43.375Z,27.49
2019-02-26T14:39:43.715Z,27.74
2019-02-26T14:41:47.982Z,28.04
2019-02-26T14:42:48.270Z,27.93
2019-02-26T14:44:52.467Z,27.67
2019-02-26T14:45:52.718Z,27.39
2019-02-26T14:47:45.857Z,27.62
2019-02-26T14:48:46.107Z,27.12
2019-02-26T14:50:50.331Z,26.51
2019-02-26T14:51:50.628Z,26.30
2019-02-26T14:53:54.836Z,26.40
2019-02-26T14:54:55.140Z,26.55
2019-02-26T14:56:59.345Z,26.13
2019-02-26T14:57:59.602Z,25.97
2019-02-26T15:00:03.804Z,26.07
2019-02-26T15:01:04.059Z,25.99
2019-02-26T15:03:08.242Z,25.77
2019-02-26T15:04:08.526Z,25.92
2019-02-26T15:06:12.741Z,25.98
2019-02-26T15:07:12.995Z,25.57
2019-02-26T15:09:17.195Z,25.38
2019-02-26T15:10:17.498Z,25.55
2019-02-26T15:12:21.674Z,25.08
2019-02-26T15:13:21.927Z,25.23
2019-02-26T15:15:26.214Z,25.27
2019-02-26T15:16:26.503Z,25.15
2019-02-26T15:18:19.610Z,24.85
2019-02-26T15:19:19.908Z,25.13
2019-02-26T15:21:24.167Z,25.38
2019-02-26T15:22:24.464Z,25.33
2019-02-26T15:24:28.743Z,25.90
2019-02-26T15:25:29.002Z,25.60
2019-02-26T15:27:36.203Z,26.17
2019-02-26T15:28:33.461Z,26.36
2019-02-26T15:30:37.663Z,26.66
2019-02-26T15:31:39.570Z,25.54
2019-02-26T15:33:42.157Z,24.98
2019-02-26T15:34:42.411Z,25.17
2019-02-26T15:36:46.617Z,24.71
2019-02-26T15:37:46.949Z,25.06
2019-02-26T15:39:51.367Z,25.50
2019-02-26T15:40:53.310Z,25.30
2019-02-26T15:42:56.454Z,24.73
2019-02-26T15:43:56.525Z,24.71
2019-02-26T15:46:00.384Z,24.46
2019-02-26T15:47:02.279Z,24.32
2019-02-26T15:49:07.336Z,24.22
2019-02-26T15:50:06.722Z,24.20
2019-02-26T15:52:09.085Z,24.06
2019-02-26T15:53:09.335Z,23.98
2019-02-26T15:55:13.531Z,23.50
2019-02-26T15:56:13.781Z,23.31
2019-02-26T15:58:07.004Z,23.47
2019-02-26T15:59:07.135Z,23.36
2019-02-26T16:01:12.883Z,23.05
2019-02-26T16:02:11.582Z,22.92
2019-02-26T16:04:15.777Z,22.49
2019-02-26T16:05:16.026Z,22.20
2019-02-26T16:07:20.408Z,22.00
2019-02-26T16:08:20.452Z,21.91
2019-02-26T16:10:24.647Z,21.58
2019-02-26T16:11:24.897Z,21.43
2019-02-26T16:13:29.096Z,21.46
2019-02-26T16:14:29.346Z,21.46
2019-02-26T16:16:33.519Z,21.16
2019-02-26T16:17:33.769Z,20.91
2019-02-26T16:19:37.964Z,20.51
2019-02-26T16:20:38.620Z,20.51
2019-02-26T16:22:42.406Z,20.28
2019-02-26T16:23:42.644Z,20.18
2019-02-26T16:25:46.841Z,19.92
2019-02-26T16:26:47.092Z,19.86
2019-02-26T16:28:51.283Z,19.66
2019-02-26T16:29:51.534Z,19.73
2019-02-26T16:31:57.284Z,19.58
2019-02-26T16:32:55.954Z,19.46
2019-02-26T16:35:00.216Z,19.36
2019-02-26T16:36:00.391Z,19.25
2019-02-26T16:37:53.493Z,19.10
2019-02-26T16:38:53.737Z,18.85
2019-02-26T16:40:57.932Z,18.69
2019-02-26T16:41:58.179Z,18.51
2019-02-26T16:44:02.377Z,18.17
2019-02-26T16:45:02.618Z,18.00
2019-02-26T16:47:06.789Z,17.70
2019-02-26T16:48:07.034Z,17.41
2019-02-26T16:50:13.198Z,16.83
2019-02-26T16:51:11.474Z,16.58
2019-02-26T16:53:15.638Z,16.01
2019-02-26T16:54:15.885Z,15.80
2019-02-26T16:56:21.840Z,15.41
2019-02-26T16:57:20.315Z,15.16
2019-02-26T16:59:24.609Z,14.94
2019-02-26T17:00:24.855Z,14.78
2019-02-26T17:02:29.017Z,14.57
2019-02-26T17:03:29.265Z,14.39
2019-02-26T17:05:33.447Z,14.24
2019-02-26T17:06:33.689Z,14.09
2019-02-26T17:08:26.781Z,13.95
2019-02-26T17:09:27.024Z,13.84
2019-02-26T17:11:31.209Z,13.63
2019-02-26T17:12:31.450Z,13.51
2019-02-26T17:14:35.611Z,13.36
2019-02-26T17:15:35.859Z,13.38
2019-02-26T17:17:40.037Z,13.17
2019-02-26T17:18:40.607Z,13.01
2019-02-26T17:20:44.464Z,12.79
2019-02-26T17:21:44.736Z,12.70
2019-02-26T17:23:48.924Z,12.57
2019-02-26T17:24:49.221Z,12.53
2019-02-26T17:26:53.399Z,12.53
2019-02-26T17:27:53.642Z,12.50
2019-02-26T17:29:57.870Z,12.50
2019-02-26T17:30:58.341Z,12.49
2019-02-26T17:33:02.457Z,12.53
2019-02-26T17:34:02.694Z,12.49
2019-02-26T17:36:06.924Z,12.29
2019-02-26T17:37:08.476Z,12.19
2019-02-26T17:39:11.459Z,12.02
2019-02-26T17:40:11.770Z,12.01
2019-02-26T17:42:17.863Z,11.96
2019-02-26T17:43:16.192Z,11.95
2019-02-26T17:45:20.441Z,11.78
2019-02-26T17:46:20.711Z,11.75
2019-02-26T17:48:13.818Z,11.58
2019-02-26T17:49:14.085Z,11.61
2019-02-26T17:51:19.072Z,11.57
2019-02-26T17:52:18.575Z,11.51
2019-02-26T17:54:22.729Z,11.54
2019-02-26T17:55:22.995Z,11.43
2019-02-26T17:57:27.250Z,11.49
2019-02-26T17:58:27.521Z,11.40
2019-02-26T18:00:31.700Z,11.33
2019-02-26T18:01:32.009Z,11.22
2019-02-26T18:03:36.271Z,11.29
2019-02-26T18:04:36.510Z,11.21
2019-02-26T18:06:40.686Z,11.14
2019-02-26T18:07:40.966Z,11.21
2019-02-26T18:09:45.115Z,10.99
2019-02-26T18:10:45.353Z,10.99
2019-02-26T18:12:49.528Z,10.85
2019-02-26T18:13:49.763Z,10.74
2019-02-26T18:15:56.845Z,10.70
2019-02-26T18:16:54.190Z,10.60
2019-02-26T18:18:59.542Z,10.60
2019-02-26T18:19:58.604Z,10.66
2019-02-26T18:22:02.821Z,10.63
2019-02-26T18:23:03.057Z,10.68
2019-02-26T18:25:07.232Z,10.68
2019-02-26T18:26:07.538Z,10.66
2019-02-26T18:28:00.642Z,10.53
2019-02-26T18:29:00.886Z,10.34
2019-02-26T18:31:05.035Z,10.09
2019-02-26T18:32:05.277Z,10.05
2019-02-26T18:34:11.807Z,9.86
2019-02-26T18:35:09.834Z,9.72
2019-02-26T18:37:14.153Z,9.58
2019-02-26T18:38:14.392Z,9.36
2019-02-26T18:40:18.614Z,9.18
2019-02-26T18:41:18.851Z,9.01
2019-02-26T18:43:23.194Z,8.94
2019-02-26T18:44:23.569Z,8.92
2019-02-26T18:46:27.814Z,8.65
2019-02-26T18:47:28.201Z,8.62
2019-02-26T18:49:32.366Z,8.56
2019-02-26T18:50:32.749Z,8.53
2019-02-26T18:52:37.061Z,8.41
2019-02-26T18:53:37.324Z,8.44
2019-02-26T18:55:41.479Z,8.34
2019-02-26T18:56:41.724Z,8.23
2019-02-26T18:58:46.705Z,8.15
2019-02-26T18:59:46.135Z,8.11
2019-02-26T19:01:50.358Z,8.05
2019-02-26T19:02:50.596Z,8.00
2019-02-26T19:04:54.745Z,8.04
2019-02-26T19:05:54.996Z,8.15
2019-02-26T19:07:48.098Z,8.23
2019-02-26T19:08:48.339Z,8.29
2019-02-26T19:10:53.301Z,8.43
2019-02-26T19:11:52.725Z,8.40
2019-02-26T19:13:56.896Z,8.23
2019-02-26T19:14:57.136Z,8.10
2019-02-26T19:17:01.307Z,8.04
2019-02-26T19:18:02.718Z,8.05
2019-02-26T19:20:05.698Z,7.79
2019-02-26T19:21:05.933Z,7.67
2019-02-26T19:23:10.105Z,7.43
2019-02-26T19:24:10.343Z,7.42
2019-02-26T19:26:14.553Z,7.27
2019-02-26T19:27:16.840Z,7.17
2019-02-26T19:29:18.905Z,7.10
2019-02-26T19:30:20.799Z,7.20
2019-02-26T19:32:23.309Z,7.25
2019-02-26T19:33:23.551Z,7.21
2019-02-26T19:35:27.701Z,7.02
2019-02-26T19:36:27.989Z,6.99
2019-02-26T19:38:21.036Z,6.58
2019-02-26T19:39:21.276Z,6.59
2019-02-26T19:41:25.432Z,6.56
2019-02-26T19:42:25.669Z,6.51
2019-02-26T19:44:29.849Z,5.94
2019-02-26T19:45:30.077Z,5.78
2019-02-26T19:47:34.241Z,5.76
2019-02-26T19:48:34.479Z,6.04
2019-02-26T19:50:38.651Z,6.49
2019-02-26T19:51:38.893Z,6.49
2019-02-26T19:53:43.061Z,6.54
2019-02-26T19:54:43.303Z,6.52
2019-02-26T19:56:47.453Z,6.64
2019-02-26T19:57:47.693Z,6.74
2019-02-26T19:59:51.862Z,6.95